Time;durP1;ratioP1;P1;durP2;ratioP2;P2;SDS_P1;SDS_P2;PMS_P1;PMS_P2;Temp;Humidity;BMP_temperature;BMP_pressure;BME280_temperature;BME280_humidity;BME280_pressure;Samples;Min_cycle;Max_cycle;Signal;HPM_P1;HPM_P2
2022/04/09 00:00:46;;;;;;;2.47;1.90;;;;;;;17.94;43.47;93799.41;5110829;28;20196;-74
2022/04/09 00:03:13;;;;;;;2.23;1.97;;;;;;;17.91;43.57;93799.78;5094098;28;20197;-73
2022/04/09 00:05:41;;;;;;;4.17;1.90;;;;;;;17.87;43.65;93788.25;5090094;28;20188;-73
2022/04/09 00:08:08;;;;;;;2.50;2.00;;;;;;;17.85;43.46;93788.47;5090406;28;20331;-74
2022/04/09 00:10:35;;;;;;;4.27;2.13;;;;;;;17.81;43.51;93784.72;5089742;28;20194;-74
2022/04/09 00:13:02;;;;;;;3.63;1.97;;;;;;;17.78;43.48;93787.69;5099463;28;20200;-74
2022/04/09 00:15:29;;;;;;;1.97;1.77;;;;;;;17.77;43.63;93789.50;5109975;28;20655;-74
2022/04/09 00:17:56;;;;;;;3.03;1.87;;;;;;;17.77;43.70;93786.13;5110606;28;20219;-74
2022/04/09 00:20:22;;;;;;;2.80;1.77;;;;;;;17.71;43.60;93792.09;5112281;28;20185;-74
2022/04/09 00:22:52;;;;;;;2.53;1.60;;;;;;;17.76;43.54;93787.13;5113916;28;20305;-74
2022/04/09 00:25:24;;;;;;;2.17;1.53;;;;;;;17.76;43.62;93789.72;5113975;28;20560;-73
2022/04/09 00:27:51;;;;;;;2.20;2.00;;;;;;;17.67;43.47;93771.00;5104724;28;20189;-74
2022/04/09 00:30:18;;;;;;;1.60;1.50;;;;;;;17.73;43.68;93782.31;5093827;28;20196;-74
2022/04/09 00:32:45;;;;;;;4.50;2.00;;;;;;;17.71;43.90;93782.53;5093957;28;20572;-73
2022/04/09 00:35:12;;;;;;;2.43;1.57;;;;;;;17.71;43.94;93779.16;5093343;28;20231;-74
2022/04/09 00:37:43;;;;;;;3.93;1.90;;;;;;;17.65;43.89;93775.56;5093945;28;20594;-73
2022/04/09 00:40:13;;;;;;;3.70;2.23;;;;;;;17.59;44.14;93773.81;5093477;28;20182;-73
2022/04/09 00:42:41;;;;;;;1.50;1.40;;;;;;;17.60;44.19;93774.59;5103351;28;20761;-74
2022/04/09 00:45:09;;;;;;;2.50;2.30;;;;;;;17.58;44.12;93774.03;5114097;28;20188;-74
2022/04/09 00:47:37;;;;;;;2.90;1.87;;;;;;;17.55;44.09;93768.25;5114314;28;20185;-74
2022/04/09 00:50:04;;;;;;;3.10;2.00;;;;;;;17.55;44.23;93772.63;5113884;28;20660;-74
2022/04/09 00:52:33;;;;;;;4.03;2.00;;;;;;;17.51;44.18;93767.06;5113839;28;20177;-74
2022/04/09 00:55:03;;;;;;;2.00;1.77;;;;;;;17.48;44.31;93764.88;5093841;28;20582;-74
2022/04/09 00:57:35;;;;;;;2.27;1.70;;;;;;;17.47;44.27;93752.16;5103701;28;20228;-74
2022/04/09 01:00:09;;;;;;;2.47;1.60;;;;;;;17.47;44.12;93757.34;5113978;28;20294;-73
2022/04/09 01:02:37;;;;;;;2.93;1.37;;;;;;;17.46;44.51;93755.75;5113650;28;20563;-74
2022/04/09 01:05:06;;;;;;;3.87;1.90;;;;;;;17.45;44.42;93752.38;5113697;28;20196;-73
2022/04/09 01:07:33;;;;;;;2.83;1.70;;;;;;;17.43;44.32;93741.44;5113630;28;20193;-72
2022/04/09 01:10:00;;;;;;;2.63;1.70;;;;;;;17.47;44.35;93750.38;5113902;28;20189;-73
2022/04/09 01:12:28;;;;;;;1.60;1.50;;;;;;;17.48;44.33;93746.00;5101267;28;20185;-72
2022/04/09 01:14:56;;;;;;;3.20;1.97;;;;;;;17.48;44.25;93739.03;5093338;28;20203;-72
2022/04/09 01:17:23;;;;;;;3.63;1.87;;;;;;;17.47;44.54;93741.81;5092748;28;20217;-71
2022/04/09 01:19:50;;;;;;;2.57;1.83;;;;;;;17.40;44.56;93718.59;5092911;28;20197;-72
2022/04/09 01:22:18;;;;;;;2.27;2.07;;;;;;;17.46;44.59;93729.91;5092796;28;20193;-72
2022/04/09 01:24:45;;;;;;;3.80;1.97;;;;;;;17.47;44.58;93732.28;5112338;28;20185;-72
2022/04/09 01:27:11;;;;;;;3.00;2.23;;;;;;;17.45;44.65;93729.13;5101091;28;20201;-75
2022/04/09 01:29:40;;;;;;;4.13;1.97;;;;;;;17.43;44.66;93728.50;5092803;28;20679;-74
2022/04/09 01:32:08;;;;;;;2.73;1.50;;;;;;;17.43;44.68;93733.66;5091281;28;20633;-75
2022/04/09 01:34:35;;;;;;;1.93;1.77;;;;;;;17.45;44.66;93741.25;5092589;28;20721;-76
2022/04/09 01:37:02;;;;;;;1.93;1.80;;;;;;;17.42;44.70;93731.31;5092486;28;20695;-75
2022/04/09 01:39:30;;;;;;;1.50;1.40;;;;;;;17.41;44.71;93740.06;5106948;28;20201;-76
2022/04/09 01:41:57;;;;;;;2.83;1.60;;;;;;;17.39;44.77;93736.88;5113031;28;20201;-77
2022/04/09 01:44:24;;;;;;;2.97;1.80;;;;;;;17.42;44.83;93736.47;5113033;28;20181;-75
2022/04/09 01:46:51;;;;;;;4.00;1.90;;;;;;;17.42;44.94;93736.47;5113235;28;20257;-73
2022/04/09 01:49:18;;;;;;;2.03;1.80;;;;;;;17.40;44.84;93744.44;5113070;28;20186;-75
2022/04/09 01:51:49;;;;;;;2.57;1.93;;;;;;;17.41;44.96;93742.66;5113095;28;20185;-75
2022/04/09 01:54:16;;;;;;;3.03;1.93;;;;;;;17.38;45.11;93750.78;5097097;28;20260;-75
2022/04/09 01:56:44;;;;;;;4.00;2.10;;;;;;;17.35;45.19;93746.81;5092470;28;20209;-73
2022/04/09 01:59:11;;;;;;;2.80;1.93;;;;;;;17.32;45.44;93747.25;5092437;28;20615;-75
2022/04/09 02:01:38;;;;;;;2.10;1.90;;;;;;;17.27;45.62;93752.19;5096794;28;20193;-74
2022/04/09 02:04:05;;;;;;;2.87;1.90;;;;;;;17.17;45.73;93744.88;5113033;28;20190;-74
2022/04/09 02:06:32;;;;;;;3.23;2.13;;;;;;;17.15;46.04;93738.31;5112423;28;20652;-73
2022/04/09 02:08:59;;;;;;;2.00;1.77;;;;;;;17.11;46.03;93747.47;5112422;28;20224;-74
2022/04/09 02:11:26;;;;;;;2.33;2.10;;;;;;;17.05;45.87;93749.88;5112432;28;20189;-74
2022/04/09 02:13:54;;;;;;;3.17;2.00;;;;;;;17.02;46.02;93745.09;5111672;28;20188;-73
2022/04/09 02:16:21;;;;;;;2.33;2.13;;;;;;;16.98;46.18;93745.69;5104243;28;20213;-74
2022/04/09 02:18:48;;;;;;;2.83;2.40;;;;;;;16.95;46.08;93746.88;5106709;28;20599;-77
2022/04/09 02:21:15;;;;;;;5.27;2.43;;;;;;;16.96;46.28;93747.66;5094800;28;20190;-76
2022/04/09 02:23:41;;;;;;;4.10;2.30;;;;;;;16.91;46.20;93743.09;5091808;28;20624;-74
2022/04/09 02:26:09;;;;;;;3.67;2.30;;;;;;;16.90;46.35;93740.72;5093968;28;20181;-77
2022/04/09 02:28:35;;;;;;;5.00;2.17;;;;;;;16.86;46.26;93742.13;5097575;28;20227;-74
2022/04/09 02:31:04;;;;;;;2.73;1.80;;;;;;;16.80;46.58;93743.72;5097836;28;20194;-74
2022/04/09 02:33:30;;;;;;;2.07;1.80;;;;;;;16.80;46.39;93741.13;5095991;28;20751;-74
2022/04/09 02:35:57;;;;;;;3.73;2.00;;;;;;;16.72;46.59;93736.13;5097174;28;20635;-75
2022/04/09 02:38:25;;;;;;;3.77;1.90;;;;;;;16.72;46.70;93734.38;5099055;28;20181;-74
2022/04/09 02:40:52;;;;;;;3.60;2.40;;;;;;;16.70;46.65;93727.78;5094056;28;20182;-74
2022/04/09 02:43:19;;;;;;;2.87;2.07;;;;;;;16.66;46.85;93739.50;5104336;28;20189;-75
2022/04/09 02:45:47;;;;;;;3.23;2.43;;;;;;;16.65;46.83;93725.81;5092407;28;20186;-74
2022/04/09 02:48:16;;;;;;;3.50;2.30;;;;;;;16.65;46.78;93725.00;5095390;28;20189;-74
2022/04/09 02:50:43;;;;;;;3.93;2.30;;;;;;;16.59;47.13;93716.28;5111227;28;20190;-74
2022/04/09 02:53:10;;;;;;;3.10;2.27;;;;;;;16.57;47.09;93715.66;5089225;28;20669;-74
2022/04/09 02:55:38;;;;;;;4.83;2.30;;;;;;;16.56;46.73;93721.81;5088612;28;20189;-74
2022/04/09 02:58:05;;;;;;;3.33;2.00;;;;;;;16.51;47.24;93709.53;5088683;28;20349;-75
2022/04/09 03:00:31;;;;;;;3.10;2.00;;;;;;;16.49;47.11;93713.28;5088773;28;20191;-72
2022/04/09 03:02:58;;;;;;;3.13;2.00;;;;;;;16.46;47.29;93724.81;5091047;28;20186;-73
2022/04/09 03:05:26;;;;;;;2.47;2.20;;;;;;;16.39;47.24;93708.50;5108665;28;20204;-74
2022/04/09 03:07:53;;;;;;;2.10;2.00;;;;;;;16.44;47.42;93715.66;5108684;28;20204;-72
2022/04/09 03:10:20;;;;;;;2.10;1.87;;;;;;;16.30;47.18;93707.13;5108882;28;20570;-72
2022/04/09 03:12:48;;;;;;;5.23;2.53;;;;;;;16.44;47.09;93729.34;5108909;28;20208;-75
2022/04/09 03:15:16;;;;;;;4.40;2.57;;;;;;;16.44;47.34;93718.25;5094099;28;20201;-73
2022/04/09 03:17:43;;;;;;;4.40;2.10;;;;;;;16.41;47.28;93722.03;5088271;28;20209;-70
2022/04/09 03:20:11;;;;;;;4.10;2.30;;;;;;;16.39;47.34;93724.00;5096721;28;20197;-72
2022/04/09 03:22:44;;;;;;;2.20;2.07;;;;;;;16.37;47.46;93722.63;5108121;28;20278;-74
2022/04/09 03:25:11;;;;;;;4.90;2.00;;;;;;;16.36;47.52;93724.38;5108859;28;20185;-74
2022/04/09 03:27:38;;;;;;;3.43;2.10;;;;;;;16.30;47.97;93723.38;5108013;28;20725;-74
2022/04/09 03:30:06;;;;;;;4.27;1.90;;;;;;;16.24;48.33;93721.59;5097932;28;20819;-74
2022/04/09 03:32:33;;;;;;;4.33;2.60;;;;;;;16.18;48.51;93713.84;5087827;28;20178;-72
2022/04/09 03:35:01;;;;;;;2.77;2.27;;;;;;;15.97;48.52;93697.53;5090362;28;20226;-73
2022/04/09 03:37:27;;;;;;;3.60;2.30;;;;;;;16.10;48.81;93732.88;5110991;28;20590;-73
2022/04/09 03:39:56;;;;;;;3.33;2.43;;;;;;;16.08;48.72;93724.53;5112474;28;20197;-73
2022/04/09 03:42:22;;;;;;;4.57;2.50;;;;;;;16.03;48.92;93730.28;5111014;28;20253;-73
2022/04/09 03:44:49;;;;;;;2.83;2.20;;;;;;;15.97;49.37;93725.88;5110469;28;20559;-74
2022/04/09 03:47:16;;;;;;;2.97;2.10;;;;;;;15.95;49.50;93727.09;5111059;28;20185;-73
2022/04/09 03:49:43;;;;;;;4.77;2.30;;;;;;;15.89;49.53;93726.09;5110735;28;20192;-73
2022/04/09 03:52:09;;;;;;;4.73;2.50;;;;;;;15.90;49.65;93732.03;5108584;28;20664;-73
2022/04/09 03:54:38;;;;;;;5.50;2.43;;;;;;;15.83;49.88;93738.94;5089450;28;20193;-74
2022/04/09 03:57:06;;;;;;;6.07;2.60;;;;;;;15.79;49.96;93733.38;5090137;28;20701;-73
2022/04/09 03:59:33;;;;;;;3.87;2.70;;;;;;;15.77;50.15;93738.75;5094485;28;20188;-72
2022/04/09 04:02:00;;;;;;;11.00;2.47;;;;;;;15.74;49.87;93733.97;5109489;28;20192;-73
2022/04/09 04:04:27;;;;;;;4.03;1.97;;;;;;;15.70;50.12;93732.75;5110222;28;20188;-73
2022/04/09 04:06:53;;;;;;;5.10;2.43;;;;;;;15.68;50.25;93731.38;5110272;28;20189;-72
2022/04/09 04:09:22;;;;;;;5.73;2.60;;;;;;;15.65;50.41;93724.00;5103559;28;20193;-73
2022/04/09 04:11:49;;;;;;;5.73;2.60;;;;;;;15.65;50.21;93729.16;5089969;28;20190;-73
2022/04/09 04:14:17;;;;;;;6.97;2.43;;;;;;;15.63;50.59;93726.75;5089836;28;20702;-75
2022/04/09 04:16:44;;;;;;;6.53;2.47;;;;;;;15.61;50.73;93741.59;5090124;28;20251;-73
2022/04/09 04:19:10;;;;;;;3.70;2.37;;;;;;;15.60;50.76;93742.59;5090422;28;20182;-73
2022/04/09 04:21:38;;;;;;;7.30;2.27;;;;;;;15.60;50.75;93740.03;5090580;28;20656;-73
2022/04/09 04:24:06;;;;;;;3.23;2.40;;;;;;;15.61;50.54;93736.44;5090280;28;20189;-75
2022/04/09 04:26:32;;;;;;;6.63;2.27;;;;;;;15.63;50.53;93736.25;5088118;28;20193;-72
2022/04/09 04:28:59;;;;;;;7.80;2.87;;;;;;;15.67;50.60;93732.34;5089979;28;20575;-73
2022/04/09 04:31:27;;;;;;;4.50;2.30;;;;;;;15.75;50.42;93735.53;5101933;28;20189;-73
2022/04/09 04:33:54;;;;;;;4.77;2.40;;;;;;;15.91;50.38;93720.72;5110242;28;20221;-72
2022/04/09 04:36:21;;;;;;;5.13;2.70;;;;;;;16.03;49.97;93729.50;5109971;28;20189;-73
2022/04/09 04:38:48;;;;;;;5.83;2.63;;;;;;;16.17;49.74;93723.38;5110098;28;20208;-73
2022/04/09 04:41:14;;;;;;;3.50;2.37;;;;;;;16.33;49.41;93734.31;5108434;28;20184;-73
2022/04/09 04:43:43;;;;;;;3.07;2.23;;;;;;;16.47;49.18;93726.38;5109992;28;20193;-73
2022/04/09 04:46:10;;;;;;;7.37;2.50;;;;;;;16.64;49.08;93726.81;5110283;28;20193;-73
2022/04/09 04:48:38;;;;;;;5.33;2.73;;;;;;;16.79;48.63;93719.66;5110031;28;20199;-73
2022/04/09 04:51:05;;;;;;;8.27;2.50;;;;;;;16.93;48.65;93727.44;5107857;28;20246;-72
2022/04/09 04:53:31;;;;;;;4.13;2.63;;;;;;;17.07;48.38;93717.88;5090860;28;20186;-73
2022/04/09 04:55:58;;;;;;;10.80;3.23;;;;;;;17.20;48.08;93713.47;5089687;28;20197;-74
2022/04/09 04:58:25;;;;;;;5.30;2.47;;;;;;;17.33;47.86;93717.03;5089081;28;20777;-72
2022/04/09 05:00:52;;;;;;;6.17;2.83;;;;;;;17.43;47.66;93715.59;5089790;28;20197;-74
2022/04/09 05:03:18;;;;;;;5.40;3.27;;;;;;;17.56;47.56;93712.94;5090821;28;20186;-74
2022/04/09 05:05:47;;;;;;;5.47;3.07;;;;;;;17.69;47.28;93706.94;5090304;28;20185;-74
2022/04/09 05:08:13;;;;;;;4.17;2.90;;;;;;;17.85;47.04;93708.31;5094989;28;20185;-74
2022/04/09 05:10:40;;;;;;;3.10;2.80;;;;;;;18.05;46.74;93698.66;5093428;28;20200;-74
2022/04/09 05:13:07;;;;;;;3.47;2.20;;;;;;;18.37;46.46;93698.63;5093194;28;20189;-75
2022/04/09 05:15:34;;;;;;;6.10;2.93;;;;;;;18.75;46.28;93711.53;5091451;28;20579;-76
2022/04/09 05:18:02;;;;;;;6.37;2.70;;;;;;;19.24;45.98;93706.50;5092429;28;20221;-74
2022/04/09 05:20:29;;;;;;;4.00;2.83;;;;;;;19.75;45.50;93705.38;5093346;28;20181;-75
2022/04/09 05:22:57;;;;;;;7.80;3.03;;;;;;;20.31;44.70;93706.84;5092896;28;20225;-73
2022/04/09 05:25:25;;;;;;;5.40;2.77;;;;;;;20.87;43.94;93692.63;5093490;28;20250;-74
2022/04/09 05:27:52;;;;;;;5.30;2.77;;;;;;;21.65;43.27;93706.25;5104093;28;20649;-76
2022/04/09 05:30:19;;;;;;;3.97;2.33;;;;;;;22.47;42.13;93701.53;5113500;28;20687;-75
2022/04/09 05:32:46;;;;;;;6.33;2.80;;;;;;;23.40;40.99;93695.88;5113362;28;20188;-75
2022/04/09 05:35:13;;;;;;;3.30;2.22;;;;;;;24.39;39.88;93702.81;5112943;28;20308;-74
2022/04/09 05:37:43;;;;;;;5.38;2.28;;;;;;;25.41;38.65;93703.59;5113119;28;20324;-74
2022/04/09 05:40:13;;;;;;;3.25;2.25;;;;;;;26.43;36.83;93702.16;5113401;28;20181;-74
2022/04/09 05:42:39;;;;;;;4.40;2.38;;;;;;;27.43;35.40;93698.22;5112819;28;20191;-74
2022/04/09 05:45:07;;;;;;;3.65;2.20;;;;;;;28.43;34.01;93702.56;5110487;28;20193;-74
2022/04/09 05:47:34;;;;;;;5.55;2.58;;;;;;;29.37;32.94;93710.25;5093103;28;20190;-73
2022/04/09 05:50:01;;;;;;;4.55;2.40;;;;;;;30.25;31.56;93716.94;5100623;28;20196;-75
2022/04/09 05:52:28;;;;;;;4.70;2.50;;;;;;;31.01;30.51;93712.41;5097262;28;20588;-76
2022/04/09 05:54:54;;;;;;;4.90;2.60;;;;;;;31.56;29.73;93714.38;5094353;28;20198;-76
2022/04/09 05:57:23;;;;;;;3.58;2.80;;;;;;;31.94;29.20;93701.78;5112574;28;20251;-74
2022/04/09 05:59:49;;;;;;;4.28;2.88;;;;;;;32.20;28.17;93709.97;5113071;28;20197;-75
2022/04/09 06:02:16;;;;;;;6.70;3.05;;;;;;;32.33;27.93;93714.47;5110867;28;20656;-75
2022/04/09 06:04:43;;;;;;;5.43;2.65;;;;;;;32.41;28.17;93720.94;5107919;28;20181;-74
2022/04/09 06:07:13;;;;;;;4.25;2.85;;;;;;;32.46;27.81;93716.31;5111232;28;20673;-74
2022/04/09 06:09:40;;;;;;;7.65;2.45;;;;;;;32.51;27.22;93723.34;5111697;28;20652;-73
2022/04/09 06:12:07;;;;;;;11.80;1.80;;;;;;;32.34;32.57;93713.41;5112393;28;20178;-74
2022/04/09 06:14:35;;;;;;;6.22;1.73;;;;;;;32.06;31.88;93717.16;5111796;28;20204;-75
2022/04/09 06:17:02;;;;;;;6.30;2.33;;;;;;;31.78;31.80;93719.81;5091316;28;20190;-77
2022/04/09 06:19:31;;;;;;;4.88;2.20;;;;;;;31.51;31.63;93706.56;5092136;28;20209;-76
2022/04/09 06:21:58;;;;;;;5.15;1.67;;;;;;;31.24;31.86;93705.41;5098856;28;20201;-74
2022/04/09 06:24:24;;;;;;;3.83;2.42;;;;;;;31.02;32.39;93705.28;5089274;28;20712;-76
2022/04/09 06:26:51;;;;;;;6.07;1.75;;;;;;;30.81;33.18;93705.59;5089166;28;20198;-74
2022/04/09 06:29:18;;;;;;;3.72;1.80;;;;;;;30.63;33.81;93701.88;5089807;28;20596;-76
2022/04/09 06:31:47;;;;;;;6.70;2.15;;;;;;;30.32;33.33;93680.44;5089196;28;20197;-77
2022/04/09 06:34:14;;;;;;;6.95;2.13;;;;;;;30.29;33.60;93711.88;5090062;28;20217;-77
2022/04/09 06:36:41;;;;;;;4.90;2.50;;;;;;;30.10;34.11;93709.97;5089012;28;20194;-76
2022/04/09 06:39:08;;;;;;;10.40;2.30;;;;;;;29.98;34.13;93722.78;5088960;28;20734;-75
2022/04/09 06:41:35;;;;;;;9.93;2.47;;;;;;;29.74;34.26;93710.38;5088753;28;20182;-73
2022/04/09 06:44:02;;;;;;;8.23;2.33;;;;;;;29.71;34.69;93723.38;5088842;28;20699;-75
2022/04/09 06:46:29;;;;;;;6.63;2.40;;;;;;;29.60;34.87;93719.25;5089099;28;20287;-77
2022/04/09 06:48:57;;;;;;;3.15;2.20;;;;;;;29.47;34.79;93723.31;5089065;28;20181;-76
2022/04/09 06:51:24;;;;;;;2.92;2.22;;;;;;;29.33;34.11;93714.50;5096045;28;20204;-76
2022/04/09 06:53:51;;;;;;;4.97;2.05;;;;;;;29.17;34.23;93721.75;5109431;28;20188;-78
2022/04/09 06:56:18;;;;;;;5.53;2.05;;;;;;;29.07;34.47;93717.38;5115552;28;20199;-79
2022/04/09 06:58:45;;;;;;;6.65;2.10;;;;;;;28.96;35.05;93719.28;5111409;28;20248;-76
2022/04/09 07:01:12;;;;;;;6.97;2.35;;;;;;;28.93;35.31;93722.47;5093872;28;20197;-77
2022/04/09 07:03:39;;;;;;;8.20;2.53;;;;;;;28.91;35.17;93724.56;5098576;28;20185;-75
2022/04/09 07:06:07;;;;;;;5.05;2.67;;;;;;;28.95;34.44;93724.81;5108952;28;20189;-76
2022/04/09 07:08:34;;;;;;;4.22;2.20;;;;;;;28.99;34.22;93716.13;5108319;28;20184;-78
2022/04/09 07:11:01;;;;;;;5.05;2.30;;;;;;;29.00;34.10;93716.91;5108554;28;20665;-72
2022/04/09 07:13:28;;;;;;;3.78;2.28;;;;;;;29.01;33.71;93715.81;5111883;28;20192;-73
2022/04/09 07:15:55;;;;;;;7.80;3.00;;;;;;;29.03;33.96;93712.94;5109411;28;20189;-72
2022/04/09 07:18:22;;;;;;;3.72;2.47;;;;;;;29.12;34.23;93711.28;5108571;28;20205;-78
2022/04/09 07:20:49;;;;;;;5.82;2.40;;;;;;;29.23;34.19;93702.19;5114811;28;20199;-76
2022/04/09 07:23:17;;;;;;;13.48;2.97;;;;;;;29.33;35.36;93699.50;5110420;28;20185;-78
2022/04/09 07:25:44;;;;;;;8.90;2.67;;;;;;;29.48;35.06;93706.44;5108962;28;20616;-74
2022/04/09 07:28:11;;;;;;;5.38;2.63;;;;;;;29.60;34.05;93704.22;5105478;28;20192;-72
2022/04/09 07:30:38;;;;;;;5.80;2.35;;;;;;;29.74;32.99;93693.78;5091923;28;20490;-80
2022/04/09 07:33:05;;;;;;;8.18;2.58;;;;;;;29.89;32.23;93696.25;5092964;28;20186;-85
2022/04/09 07:35:33;;;;;;;12.88;3.10;;;;;;;30.03;31.51;93692.94;5093832;28;20702;-80
2022/04/09 07:38:00;;;;;;;5.38;2.85;;;;;;;30.18;30.63;93700.66;5093637;28;20311;-77
2022/04/09 07:40:29;;;;;;;4.47;2.92;;;;;;;30.34;30.44;93690.69;5092365;28;20213;-74
2022/04/09 07:42:57;;;;;;;6.88;2.80;;;;;;;30.48;29.94;93691.53;5090672;28;20661;-71
2022/04/09 07:45:24;;;;;;;5.82;2.95;;;;;;;30.63;29.12;93691.31;5090505;28;20325;-72
2022/04/09 07:47:54;;;;;;;10.43;2.80;;;;;;;30.82;28.67;93696.59;5090411;28;20196;-72
2022/04/09 07:50:20;;;;;;;4.07;2.70;;;;;;;31.04;28.59;93689.91;5092084;28;20630;-75
2022/04/09 07:52:47;;;;;;;5.30;2.75;;;;;;;31.27;28.20;93693.50;5109696;28;20192;-71
2022/04/09 07:55:17;;;;;;;5.07;2.88;;;;;;;31.51;27.87;93686.19;5110707;28;20185;-79
2022/04/09 07:57:46;;;;;;;5.63;3.55;;;;;;;31.73;27.50;93688.94;5111353;28;20184;-83
2022/04/09 08:00:14;;;;;;;4.88;3.05;;;;;;;31.97;27.32;93693.28;5113573;28;20193;-80
2022/04/09 08:02:41;;;;;;;6.72;3.10;;;;;;;32.26;26.93;93700.09;5110971;28;20188;-78
2022/04/09 08:05:10;;;;;;;6.07;2.88;;;;;;;32.48;26.83;93692.22;5110628;28;20193;-79
2022/04/09 08:07:37;;;;;;;4.10;2.42;;;;;;;32.69;26.56;93695.97;5110416;28;20609;-78
2022/04/09 08:10:05;;;;;;;5.28;2.70;;;;;;;32.87;26.20;93683.63;5110776;28;20193;-78
2022/04/09 08:12:32;;;;;;;5.13;2.42;;;;;;;33.04;26.12;93677.69;5110587;28;20185;-78
2022/04/09 08:15:00;;;;;;;3.45;2.38;;;;;;;33.23;25.86;93677.47;5111088;28;20391;-82
2022/04/09 08:17:27;;;;;;;5.68;2.65;;;;;;;33.45;25.82;93680.06;5108870;28;20251;-80
2022/04/09 08:19:55;;;;;;;5.70;2.75;;;;;;;33.71;25.51;93674.88;5110306;28;20760;-81
2022/04/09 08:22:23;;;;;;;5.75;2.60;;;;;;;34.00;25.17;93683.41;5110438;28;20250;-74
2022/04/09 08:24:50;;;;;;;3.03;2.13;;;;;;;34.29;24.99;93673.00;5110599;28;20193;-77
2022/04/09 08:27:17;;;;;;;6.55;2.20;;;;;;;34.62;24.68;93683.94;5110422;28;20682;-78
2022/04/09 08:29:44;;;;;;;3.75;2.67;;;;;;;34.95;24.45;93675.47;5110633;28;20193;-77
2022/04/09 08:32:12;;;;;;;6.80;2.30;;;;;;;35.24;24.09;93660.75;5109995;28;20195;-78
2022/04/09 08:34:39;;;;;;;4.43;2.35;;;;;;;35.48;23.56;93663.66;5110054;28;20220;-79
2022/04/09 08:37:07;;;;;;;6.15;2.80;;;;;;;35.58;23.39;93659.84;5110248;28;20185;-78
2022/04/09 08:39:34;;;;;;;4.43;2.72;;;;;;;35.72;23.45;93651.66;5110190;28;20648;-81
2022/04/09 08:42:02;;;;;;;3.17;2.03;;;;;;;35.68;23.29;93654.97;5111075;28;20669;-83
2022/04/09 08:44:29;;;;;;;3.05;2.33;;;;;;;35.60;23.54;93650.47;5114643;28;20203;-82
2022/04/09 08:46:56;;;;;;;7.13;2.90;;;;;;;35.51;23.79;93648.94;5114058;28;20250;-76
2022/04/09 08:49:26;;;;;;;4.78;2.08;;;;;;;35.53;23.48;93652.81;5114947;28;20193;-78
2022/04/09 08:51:53;;;;;;;2.33;1.85;;;;;;;35.56;23.14;93640.78;5114170;28;20196;-78
2022/04/09 08:54:19;;;;;;;5.22;2.03;;;;;;;35.51;22.81;93654.25;5113794;28;20193;-83
2022/04/09 08:56:49;;;;;;;2.67;2.08;;;;;;;35.43;23.29;93653.16;5113902;28;20660;-82
2022/04/09 08:59:16;;;;;;;3.83;1.58;;;;;;;35.38;23.19;93656.00;5113627;28;20641;-82
2022/04/09 09:01:43;;;;;;;2.90;1.48;;;;;;;35.35;23.18;93651.31;5114105;28;20177;-81
2022/04/09 09:04:10;;;;;;;1.40;1.30;;;;;;;35.36;23.29;93655.53;5113343;28;20188;-83
2022/04/09 09:06:44;;;;;;;3.55;1.50;;;;;;;35.37;23.08;93655.22;5112203;28;20196;-80
2022/04/09 09:09:29;;;;;;;2.28;1.60;;;;;;;35.36;23.21;93644.88;5112876;28;20246;-80
2022/04/09 09:11:56;;;;;;;4.30;1.58;;;;;;;35.27;23.07;93638.81;5114013;28;20214;-83
2022/04/09 09:14:28;;;;;;;2.10;1.70;;;;;;;35.15;23.18;93631.53;5113330;28;20253;-83
2022/04/09 09:16:55;;;;;;;1.80;1.20;;;;;;;35.03;22.92;93660.66;5113745;28;20185;-83
2022/04/09 09:19:22;;;;;;;2.33;1.40;;;;;;;34.83;23.78;93656.75;5113616;28;20217;-78
2022/04/09 09:21:55;;;;;;;2.45;1.33;;;;;;;34.62;23.55;93651.28;5113549;28;20300;-81
2022/04/09 09:24:22;;;;;;;3.63;1.63;;;;;;;34.40;23.57;93649.56;5113102;28;20206;-82
2022/04/09 09:26:58;;;;;;;2.95;1.60;;;;;;;34.06;23.62;93650.31;5113528;28;20238;-75
2022/04/09 09:29:27;;;;;;;2.03;1.30;;;;;;;33.80;23.66;93644.94;5113149;28;20231;-81
2022/04/09 09:31:55;;;;;;;5.05;1.58;;;;;;;33.51;23.83;93648.94;5110632;28;20190;-83
2022/04/09 09:34:22;;;;;;;2.22;1.58;;;;;;;33.20;24.12;93644.41;5112183;28;20227;-80
2022/04/09 09:36:50;;;;;;;3.25;1.60;;;;;;;32.96;24.09;93636.81;5112644;28;20189;-84
2022/04/09 09:39:21;;;;;;;2.42;1.90;;;;;;;32.75;24.16;93633.06;5112781;28;20224;-82
2022/04/09 09:41:50;;;;;;;2.78;1.75;;;;;;;32.59;24.31;93624.69;5112662;28;20253;-81
2022/04/09 09:44:17;;;;;;;2.75;1.52;;;;;;;32.46;24.56;93615.72;5113296;28;20189;-75
2022/04/09 09:46:45;;;;;;;2.72;1.60;;;;;;;32.41;24.33;93629.09;5112566;28;20184;-79
2022/04/09 09:49:12;;;;;;;3.22;1.50;;;;;;;32.41;24.24;93626.44;5112644;28;20196;-79
2022/04/09 09:51:39;;;;;;;3.95;1.35;;;;;;;32.44;24.35;93623.22;5112794;28;20232;-83
2022/04/09 09:54:07;;;;;;;2.35;1.40;;;;;;;32.47;24.43;93603.28;5111857;28;20196;-82
2022/04/09 09:56:37;;;;;;;4.53;1.70;;;;;;;32.51;24.58;93616.69;5112829;28;20192;-84
2022/04/09 09:59:06;;;;;;;5.95;1.60;;;;;;;32.52;24.30;93615.63;5110705;28;20307;-82
2022/04/09 10:01:36;;;;;;;3.28;1.65;;;;;;;32.52;24.06;93620.94;5114638;28;20193;-81
2022/04/09 10:04:04;;;;;;;2.35;1.55;;;;;;;32.54;24.29;93616.09;5115185;28;20184;-83
2022/04/09 10:06:32;;;;;;;3.92;1.75;;;;;;;32.57;24.16;93612.84;5118963;28;20189;-72
2022/04/09 10:08:59;;;;;;;5.03;1.80;;;;;;;32.61;24.42;93613.81;5113367;28;20583;-79
2022/04/09 10:11:28;;;;;;;3.22;1.98;;;;;;;32.64;24.03;93602.59;5112243;28;20726;-75
2022/04/09 10:13:58;;;;;;;1.50;1.40;;;;;;;32.58;24.17;93609.91;5112842;28;20189;-79
2022/04/09 10:16:27;;;;;;;4.53;1.70;;;;;;;32.50;24.22;93604.56;5112499;28;20713;-79
2022/04/09 10:19:00;;;;;;;2.05;1.50;;;;;;;32.38;23.97;93605.84;5112660;28;20580;-84
2022/04/09 10:21:28;;;;;;;4.10;1.80;;;;;;;32.29;24.30;93598.91;5112425;28;20221;-83
2022/04/09 10:23:57;;;;;;;1.63;1.48;;;;;;;32.15;24.00;93607.69;5110629;28;20216;-78
2022/04/09 10:26:25;;;;;;;1.95;1.60;;;;;;;32.04;24.25;93590.50;5113065;28;20189;-80
2022/04/09 10:28:52;;;;;;;1.85;1.30;;;;;;;31.93;24.51;93594.44;5094335;28;20732;-81
2022/04/09 10:31:38;;;;;;;5.95;2.00;;;;;;;31.75;24.30;93590.03;5112384;28;20192;-79
2022/04/09 10:34:07;;;;;;;3.60;1.60;;;;;;;31.65;24.23;93594.47;5112212;28;20599;-74
2022/04/09 10:37:06;;;;;;;1.75;1.45;;;;;;;31.61;24.46;93582.16;5113080;28;20595;-80
2022/04/09 10:39:47;;;;;;;6.95;1.98;;;;;;;31.48;24.37;93584.50;5112179;28;20259;-77
2022/04/09 10:42:49;;;;;;;2.38;2.00;;;;;;;31.40;24.63;93581.78;5112870;28;20193;-77
2022/04/09 10:45:16;;;;;;;4.50;1.83;;;;;;;31.36;24.36;93589.50;5121943;28;20664;-77
2022/04/09 10:48:07;;;;;;;6.07;1.80;;;;;;;31.36;24.44;93584.22;5113664;28;20637;-81
2022/04/09 10:50:53;;;;;;;2.05;1.45;;;;;;;31.37;24.65;93572.56;5112004;28;20191;-78
2022/04/09 10:53:21;;;;;;;1.52;1.40;;;;;;;31.38;24.54;93571.47;5111812;28;20197;-78
2022/04/09 10:56:24;;;;;;;2.25;1.60;;;;;;;31.38;24.86;93566.19;5111897;28;20185;-80
2022/04/09 10:59:08;;;;;;;3.63;1.90;;;;;;;31.34;24.81;93557.28;5111868;28;20256;-77
2022/04/09 11:01:54;;;;;;;6.07;1.90;;;;;;;31.29;24.88;93561.91;5111500;28;20189;-81
2022/04/09 11:04:44;;;;;;;2.65;1.60;;;;;;;31.29;24.73;93561.91;5111273;28;20192;-79
2022/04/09 11:07:16;;;;;;;3.22;1.80;;;;;;;31.33;24.56;93557.59;5111652;28;20181;-77
2022/04/09 11:09:44;;;;;;;3.67;1.88;;;;;;;31.37;24.73;93540.06;5111009;28;20197;-73
2022/04/09 11:12:11;;;;;;;1.70;1.60;;;;;;;31.40;24.71;93545.56;5111195;28;20188;-73
2022/04/09 11:14:47;;;;;;;2.10;1.65;;;;;;;31.40;24.48;93539.50;5111704;28;20203;-80
2022/04/09 11:17:24;;;;;;;4.03;1.60;;;;;;;31.37;24.45;93532.16;5111719;28;20181;-78
2022/04/09 11:19:53;;;;;;;4.00;1.48;;;;;;;31.40;24.65;93540.28;5111185;28;20622;-74
2022/04/09 11:22:20;;;;;;;3.75;1.88;;;;;;;31.38;24.67;93534.47;5111354;28;20193;-76
2022/04/09 11:24:48;;;;;;;6.38;2.05;;;;;;;31.38;24.16;93523.91;5110737;28;20193;-77
2022/04/09 11:27:15;;;;;;;4.78;1.60;;;;;;;31.32;24.10;93513.75;5111363;28;20204;-84
2022/04/09 11:29:43;;;;;;;3.78;1.60;;;;;;;31.38;23.85;93531.06;5111099;28;20220;-79
2022/04/09 11:32:20;;;;;;;2.97;1.70;;;;;;;31.40;23.89;93523.63;5111143;28;20181;-74
2022/04/09 11:34:49;;;;;;;2.55;1.40;;;;;;;31.45;24.07;93523.53;5110731;28;20224;-71
2022/04/09 11:37:18;;;;;;;2.17;1.23;;;;;;;31.48;23.82;93522.94;5110732;28;20193;-77
2022/04/09 11:39:46;;;;;;;3.72;1.60;;;;;;;31.45;24.01;93516.38;5110853;28;20228;-82